createdAt,value
2023-03-25T00:02:21.785Z,97827.97
2023-03-25T00:04:55.730Z,97825.03
2023-03-25T00:07:22.946Z,97819.94
2023-03-25T00:09:49.904Z,97823.56
2023-03-25T00:12:19.078Z,97824.69
2023-03-25T00:14:54.919Z,97826.34
2023-03-25T00:17:23.551Z,97826.06
2023-03-25T00:19:52.144Z,97820.34
2023-03-25T00:22:19.279Z,97824.94
2023-03-25T00:24:46.119Z,97824.03
2023-03-25T00:27:14.298Z,97822.28
2023-03-25T00:29:42.313Z,97824.94
2023-03-25T00:32:08.986Z,97829.16
2023-03-25T00:34:41.691Z,97828.63
2023-03-25T00:37:09.357Z,97830.53
2023-03-25T00:39:37.450Z,97832.38
2023-03-25T00:42:04.466Z,97831.66
2023-03-25T00:44:31.959Z,97831.75
2023-03-25T00:46:58.618Z,97829.19
2023-03-25T00:49:25.497Z,97833.44
2023-03-25T00:51:54.194Z,97831.56
2023-03-25T00:54:22.331Z,97831.41
2023-03-25T00:56:50.520Z,97832.72
2023-03-25T00:59:17.181Z,97831.75
2023-03-25T01:01:46.240Z,97829.91
2023-03-25T01:04:13.166Z,97837.47
2023-03-25T01:06:43.936Z,97834.22
2023-03-25T01:09:17.226Z,97829.41
2023-03-25T01:11:45.767Z,97831.81
2023-03-25T01:14:16.922Z,97829.91
2023-03-25T01:16:43.913Z,97830.38
2023-03-25T01:19:11.270Z,97835.91
2023-03-25T01:21:38.182Z,97832.97
2023-03-25T01:24:06.967Z,97840.75
2023-03-25T01:26:34.148Z,97840.09
2023-03-25T01:29:00.947Z,97840.91
2023-03-25T01:31:30.343Z,97843.31
2023-03-25T01:33:58.243Z,97838.72
2023-03-25T01:36:29.569Z,97841.38
2023-03-25T01:38:59.182Z,97825.88
2023-03-25T01:41:35.689Z,97831.66
2023-03-25T01:44:30.252Z,97834.31
2023-03-25T01:47:03.988Z,97829.56
2023-03-25T01:49:39.232Z,97824.59
2023-03-25T01:52:09.514Z,97824.94
2023-03-25T01:54:38.811Z,97821.78
2023-03-25T01:57:08.715Z,97817.03
2023-03-25T01:59:38.018Z,97811.81
2023-03-25T02:02:09.106Z,97818.69
2023-03-25T02:04:42.733Z,97815.25
2023-03-25T02:07:10.262Z,97812.53
2023-03-25T02:09:38.968Z,97809.22
2023-03-25T02:12:05.755Z,97811.88
2023-03-25T02:14:35.347Z,97808.09
2023-03-25T02:17:22.392Z,97792.78
2023-03-25T02:20:19.514Z,97791.78
2023-03-25T02:22:57.412Z,97784.78
2023-03-25T02:25:35.766Z,97786.06
2023-03-25T02:28:17.997Z,97794.00
2023-03-25T02:31:09.375Z,97788.97
2023-03-25T02:33:55.403Z,97794.25
2023-03-25T02:36:56.379Z,97805.91
2023-03-25T02:39:34.076Z,97808.75
2023-03-25T02:42:06.424Z,97798.16
2023-03-25T02:44:41.900Z,97797.38
2023-03-25T02:47:20.968Z,97813.03
2023-03-25T02:50:01.057Z,97803.81
2023-03-25T02:52:33.066Z,97799.78
2023-03-25T02:55:05.021Z,97799.44
2023-03-25T02:57:35.429Z,97800.03
2023-03-25T03:00:10.593Z,97801.41
2023-03-25T03:02:39.177Z,97802.19
2023-03-25T03:05:22.559Z,97800.81
2023-03-25T03:07:55.257Z,97800.06
2023-03-25T03:10:29.140Z,97795.25
2023-03-25T03:13:19.263Z,97789.16
2023-03-25T03:16:04.252Z,97796.28
2023-03-25T03:18:44.920Z,97791.25
2023-03-25T03:21:18.038Z,97790.66
2023-03-25T03:23:56.754Z,97787.72
2023-03-25T03:26:34.429Z,97785.75
2023-03-25T03:29:05.848Z,97793.44
2023-03-25T03:31:48.189Z,97783.81
2023-03-25T03:34:47.070Z,97788.06
2023-03-25T03:37:17.213Z,97791.75
2023-03-25T03:39:47.708Z,97793.81
2023-03-25T03:42:23.834Z,97794.84
2023-03-25T03:44:56.958Z,97799.81
2023-03-25T03:47:29.714Z,97794.19
2023-03-25T03:50:00.462Z,97800.03
2023-03-25T03:52:33.717Z,97799.25
2023-03-25T03:55:04.804Z,97798.22
2023-03-25T03:57:40.008Z,97799.25
2023-03-25T04:00:09.973Z,97803.81
2023-03-25T04:02:43.002Z,97800.38
2023-03-25T04:05:13.210Z,97797.16
2023-03-25T04:07:43.130Z,97816.38
2023-03-25T04:10:21.652Z,97802.56
2023-03-25T04:12:52.568Z,97803.75
2023-03-25T04:15:19.364Z,97803.13
2023-03-25T04:17:48.144Z,97809.34
2023-03-25T04:20:18.737Z,97810.97
2023-03-25T04:22:45.535Z,97807.19
2023-03-25T04:25:14.086Z,97804.03
2023-03-25T04:27:41.087Z,97805.31
2023-03-25T04:30:09.477Z,97814.63
2023-03-25T04:32:36.488Z,97807.25
2023-03-25T04:35:03.710Z,97809.53
2023-03-25T04:37:33.785Z,97808.97
2023-03-25T04:40:00.632Z,97809.81
2023-03-25T04:42:32.850Z,97809.09
2023-03-25T04:44:59.810Z,97813.47
2023-03-25T04:47:27.332Z,97817.06
2023-03-25T04:49:53.978Z,97812.47
2023-03-25T04:52:20.935Z,97818.56
2023-03-25T04:54:47.735Z,97823.19
2023-03-25T04:57:15.391Z,97828.25
2023-03-25T04:59:42.360Z,97822.84
2023-03-25T05:02:13.590Z,97824.31
2023-03-25T05:04:42.997Z,97826.31
2023-03-25T05:07:09.907Z,97826.50
2023-03-25T05:09:39.727Z,97835.16
2023-03-25T05:12:11.172Z,97828.59
2023-03-25T05:14:37.930Z,97822.38
2023-03-25T05:17:04.609Z,97821.09
2023-03-25T05:19:34.942Z,97818.13
2023-03-25T05:22:04.620Z,97824.44
2023-03-25T05:24:31.400Z,97823.53
2023-03-25T05:26:58.015Z,97817.06
2023-03-25T05:29:24.672Z,97823.97
2023-03-25T05:31:51.349Z,97825.72
2023-03-25T05:34:18.008Z,97823.66
2023-03-25T05:36:45.022Z,97824.81
2023-03-25T05:39:12.138Z,97824.09
2023-03-25T05:41:39.043Z,97819.94
2023-03-25T05:44:08.782Z,97826.59
2023-03-25T05:46:35.691Z,97825.09
2023-03-25T05:49:05.515Z,97829.94
2023-03-25T05:51:37.460Z,97826.19
2023-03-25T05:54:11.283Z,97836.66
2023-03-25T05:56:38.613Z,97844.03
2023-03-25T05:59:05.471Z,97845.66
2023-03-25T06:01:34.299Z,97841.25
2023-03-25T06:04:02.887Z,97855.75
2023-03-25T06:06:32.210Z,97861.53
2023-03-25T06:08:59.353Z,97858.41
2023-03-25T06:11:26.047Z,97861.03
2023-03-25T06:13:52.792Z,97871.63
2023-03-25T06:16:22.365Z,97876.59
2023-03-25T06:18:51.471Z,97868.09
2023-03-25T06:21:19.788Z,97871.63
2023-03-25T06:23:49.455Z,97881.94
2023-03-25T06:26:17.384Z,97884.00
2023-03-25T06:28:44.749Z,97885.97
2023-03-25T06:31:16.878Z,97887.84
2023-03-25T06:33:45.271Z,97885.34
2023-03-25T06:36:15.422Z,97891.53
2023-03-25T06:38:42.212Z,97890.94
2023-03-25T06:41:08.985Z,97896.81
2023-03-25T06:43:35.622Z,97886.94
2023-03-25T06:46:02.740Z,97888.44
2023-03-25T06:48:29.533Z,97890.59
2023-03-25T06:50:56.207Z,97889.13
2023-03-25T06:53:23.174Z,97884.13
2023-03-25T06:55:50.346Z,97890.13
2023-03-25T06:58:17.314Z,97887.09
2023-03-25T07:00:44.001Z,97885.19
2023-03-25T07:03:11.373Z,97885.25
2023-03-25T07:05:38.208Z,97900.31
2023-03-25T07:08:05.339Z,97890.50
2023-03-25T07:10:32.337Z,97895.19
2023-03-25T07:12:59.107Z,97892.66
2023-03-25T07:15:25.718Z,97900.22
2023-03-25T07:17:53.107Z,97889.84
2023-03-25T07:20:19.801Z,97898.84
2023-03-25T07:22:46.428Z,97891.22
2023-03-25T07:25:13.075Z,97881.19
2023-03-25T07:27:40.711Z,97882.56
2023-03-25T07:30:08.062Z,97883.19
2023-03-25T07:32:34.682Z,97883.19
2023-03-25T07:35:01.364Z,97883.19
2023-03-25T07:37:27.964Z,97883.19
2023-03-25T07:39:54.625Z,65102.69
2023-03-25T07:42:21.337Z,65102.69
2023-03-25T07:44:47.972Z,65102.69
2023-03-25T07:47:14.615Z,65102.69
2023-03-25T07:49:42.243Z,97883.19
2023-03-25T07:52:08.874Z,65102.69
2023-03-25T07:54:36.059Z,65102.69
2023-03-25T07:57:02.754Z,65102.69
2023-03-25T07:59:29.599Z,65102.69
2023-03-25T08:01:56.333Z,65102.69
2023-03-25T08:04:22.983Z,65102.69
2023-03-25T08:06:49.600Z,65102.69
2023-03-25T08:09:16.256Z,65102.69
2023-03-25T08:11:42.876Z,65102.69
2023-03-25T08:14:09.590Z,65102.69
2023-03-25T08:16:36.361Z,65102.69
2023-03-25T08:19:03.052Z,65102.69
2023-03-25T08:21:30.079Z,65102.69
2023-03-25T08:24:02.297Z,65102.69
2023-03-25T08:26:29.633Z,65102.69
2023-03-25T08:28:57.899Z,65102.69
2023-03-25T08:31:25.779Z,65102.69
2023-03-25T08:33:52.782Z,65102.69
2023-03-25T08:36:19.900Z,65102.69
2023-03-25T08:38:47.383Z,65102.69
2023-03-25T08:41:14.216Z,65102.69
2023-03-25T08:43:41.069Z,65102.69
2023-03-25T08:46:08.184Z,65102.69
2023-03-25T08:48:34.881Z,65102.69
2023-03-25T08:51:02.237Z,65102.69
2023-03-25T08:53:28.882Z,65102.69
2023-03-25T08:55:57.933Z,65102.69
2023-03-25T08:58:25.696Z,65102.69
2023-03-25T09:00:55.732Z,65102.69
2023-03-25T09:03:23.958Z,65102.69
2023-03-25T09:05:51.339Z,65102.69
2023-03-25T09:08:18.376Z,65102.69
2023-03-25T09:10:48.653Z,65102.69
2023-03-25T09:13:15.562Z,65102.69
2023-03-25T09:15:42.279Z,65102.69
2023-03-25T09:18:10.192Z,65102.69
2023-03-25T09:20:36.963Z,65102.69
2023-03-25T09:23:03.982Z,65102.69
2023-03-25T09:25:30.664Z,65102.69
2023-03-25T09:27:57.290Z,65102.69
2023-03-25T09:30:23.937Z,65102.69
2023-03-25T09:32:50.597Z,65102.69
2023-03-25T09:35:17.269Z,65102.69
2023-03-25T09:37:44.509Z,65102.69
2023-03-25T09:40:16.543Z,65102.69
2023-03-25T09:43:03.257Z,65102.69
2023-03-25T09:45:30.051Z,65102.69
2023-03-25T09:48:03.465Z,65102.69
2023-03-25T09:50:35.578Z,65102.69
2023-03-25T09:53:21.330Z,65102.69
2023-03-25T09:55:49.303Z,65102.69
2023-03-25T09:58:38.096Z,65102.69
2023-03-25T10:01:17.922Z,65102.69
2023-03-25T10:03:57.594Z,65102.69
2023-03-25T10:06:26.689Z,65102.69
2023-03-25T10:09:28.623Z,65102.69
2023-03-25T10:12:16.297Z,65102.69
2023-03-25T10:15:13.123Z,65102.69
2023-03-25T10:17:56.653Z,65102.69
2023-03-25T10:20:38.746Z,65102.69
2023-03-25T10:23:21.745Z,65102.69
2023-03-25T10:25:56.858Z,65102.69
2023-03-25T10:28:33.118Z,65102.69
2023-03-25T10:31:00.566Z,65102.69
2023-03-25T10:33:39.292Z,65102.69
2023-03-25T10:36:12.555Z,65102.69
2023-03-25T10:38:42.003Z,65102.69
2023-03-25T10:41:22.889Z,65102.69
2023-03-25T10:43:50.822Z,65102.69
2023-03-25T10:46:37.336Z,65102.69
2023-03-25T10:49:04.052Z,65102.69
2023-03-25T10:51:33.851Z,65102.69
2023-03-25T10:54:00.981Z,65102.69
2023-03-25T10:56:34.434Z,65102.69
2023-03-25T10:59:07.658Z,65102.69
2023-03-25T11:01:40.242Z,65102.69
2023-03-25T11:04:10.437Z,65102.69
2023-03-25T11:06:40.673Z,65102.69
2023-03-25T11:09:08.459Z,65102.69
2023-03-25T11:11:36.618Z,65102.69
2023-03-25T11:14:04.038Z,65102.69
2023-03-25T11:16:34.298Z,65102.69
2023-03-25T11:19:02.606Z,65102.69
2023-03-25T11:21:36.531Z,65102.69
2023-03-25T11:24:06.385Z,65102.69
2023-03-25T11:26:41.313Z,65102.69
2023-03-25T11:29:13.663Z,65102.69
2023-03-25T11:31:42.658Z,65102.69
2023-03-25T11:34:22.982Z,65102.69
2023-03-25T11:36:59.346Z,65102.69
2023-03-25T11:39:29.240Z,65102.69
2023-03-25T11:41:57.232Z,65102.69
2023-03-25T11:44:29.487Z,65102.69
2023-03-25T11:47:01.527Z,65102.69
2023-03-25T11:49:34.809Z,65102.69
2023-03-25T11:52:07.282Z,65102.69
2023-03-25T11:54:37.081Z,65102.69
2023-03-25T11:57:07.030Z,65102.69
2023-03-25T11:59:39.089Z,65102.69
2023-03-25T12:02:23.547Z,65102.69
2023-03-25T12:05:01.407Z,65102.69
2023-03-25T12:07:29.252Z,65102.69
2023-03-25T12:09:58.644Z,65102.69
2023-03-25T12:12:46.162Z,65102.69
2023-03-25T12:15:27.549Z,65102.69
2023-03-25T12:18:12.541Z,65102.69
2023-03-25T12:20:54.404Z,65102.69
2023-03-25T12:23:43.864Z,65102.69
2023-03-25T12:26:13.255Z,65102.69
2023-03-25T12:29:10.442Z,65102.69
2023-03-25T12:31:52.277Z,65102.69
2023-03-25T12:34:49.463Z,65102.69
2023-03-25T12:37:46.570Z,65102.69
2023-03-25T12:40:42.819Z,65102.69
2023-03-25T12:43:13.960Z,65102.69
2023-03-25T12:46:04.247Z,65102.69
2023-03-25T12:48:46.153Z,65102.69
2023-03-25T12:51:28.519Z,65102.69
2023-03-25T12:54:10.689Z,65102.69
2023-03-25T12:56:46.853Z,65102.69
2023-03-25T12:59:43.943Z,65102.69
2023-03-25T13:02:37.730Z,65102.69
2023-03-25T13:05:23.375Z,65102.69
2023-03-25T13:07:58.341Z,65102.69
2023-03-25T13:10:31.267Z,65102.69
2023-03-25T13:13:04.046Z,65102.69
2023-03-25T13:15:48.805Z,65102.69
2023-03-25T13:18:21.725Z,65102.69
2023-03-25T13:21:06.895Z,65102.69
2023-03-25T13:23:42.680Z,65102.69
2023-03-25T13:26:12.356Z,65102.69
2023-03-25T13:28:46.795Z,65102.69
2023-03-25T13:31:19.366Z,65102.69
2023-03-25T13:33:53.635Z,65102.69
2023-03-25T13:36:28.044Z,65102.69
2023-03-25T13:38:59.341Z,65102.69
2023-03-25T13:41:34.342Z,65102.69
2023-03-25T13:44:05.114Z,65102.69
2023-03-25T13:46:41.454Z,65102.69
2023-03-25T13:49:23.802Z,65102.69
2023-03-25T13:51:53.764Z,65102.69
2023-03-25T13:54:31.066Z,65102.69
2023-03-25T13:57:13.106Z,65102.69
2023-03-25T13:59:59.644Z,65102.69
2023-03-25T14:02:53.555Z,65102.69
2023-03-25T14:05:51.596Z,65102.69
2023-03-25T14:08:42.748Z,65102.69
2023-03-25T14:11:25.830Z,65102.69
2023-03-25T14:14:01.806Z,65102.69
2023-03-25T14:16:33.863Z,65102.69
2023-03-25T14:19:06.981Z,65102.69
2023-03-25T14:21:42.047Z,65102.69
2023-03-25T14:24:14.134Z,65102.69
2023-03-25T14:26:49.238Z,65102.69
2023-03-25T14:29:31.964Z,65102.69
2023-03-25T14:32:02.491Z,65102.69
2023-03-25T14:34:29.864Z,65102.69
2023-03-25T14:36:57.452Z,65102.69
2023-03-25T14:39:44.655Z,65102.69
2023-03-25T14:42:26.145Z,65102.69
2023-03-25T14:44:54.716Z,65102.69
2023-03-25T14:47:27.227Z,65102.69
2023-03-25T14:50:05.404Z,65102.69
2023-03-25T14:52:40.694Z,65102.69
2023-03-25T14:55:17.381Z,65102.69
2023-03-25T14:57:45.674Z,65102.69
2023-03-25T15:00:28.948Z,65102.69
2023-03-25T15:03:05.048Z,65102.69
2023-03-25T15:05:34.020Z,65102.69
2023-03-25T15:08:17.645Z,65102.69
2023-03-25T15:10:50.099Z,65102.69
2023-03-25T15:13:38.235Z,65102.69
2023-03-25T15:16:17.519Z,65102.69
2023-03-25T15:18:59.609Z,65102.69
2023-03-25T15:21:30.764Z,65102.69
2023-03-25T15:24:11.939Z,65102.69
2023-03-25T15:26:41.645Z,65102.69
2023-03-25T15:29:33.902Z,65102.69
2023-03-25T15:32:33.403Z,65102.69
2023-03-25T15:35:30.598Z,65102.69
2023-03-25T15:38:24.666Z,65102.69
2023-03-25T15:41:19.568Z,65102.69
2023-03-25T15:44:11.394Z,65102.69
2023-03-25T15:46:53.369Z,65102.69
2023-03-25T15:49:31.123Z,65102.69
2023-03-25T15:52:32.976Z,65102.69
2023-03-25T15:55:22.640Z,65102.69
2023-03-25T15:57:54.260Z,65102.69
2023-03-25T16:00:27.884Z,65102.69
2023-03-25T16:03:05.431Z,65102.69
2023-03-25T16:05:36.086Z,65102.69
2023-03-25T16:08:11.362Z,65102.69
2023-03-25T16:10:39.654Z,65102.69
2023-03-25T16:13:11.562Z,65102.69
2023-03-25T16:15:40.083Z,65102.69
2023-03-25T16:18:11.192Z,65102.69
2023-03-25T16:20:38.104Z,65102.69
2023-03-25T16:23:07.707Z,65102.69
2023-03-25T16:25:38.867Z,65102.69
2023-03-25T16:28:08.183Z,65102.69
2023-03-25T16:30:38.332Z,65102.69
2023-03-25T16:33:19.103Z,65102.69
2023-03-25T16:35:52.252Z,65102.69
2023-03-25T16:38:21.710Z,65102.69
2023-03-25T16:40:50.005Z,65102.69
2023-03-25T16:43:21.400Z,65102.69
2023-03-25T16:45:49.823Z,65102.69
2023-03-25T16:48:23.469Z,65102.69
2023-03-25T16:50:53.965Z,65102.69
2023-03-25T16:53:22.253Z,65102.69
2023-03-25T16:55:56.213Z,65102.69
2023-03-25T16:58:24.843Z,65102.69
2023-03-25T17:00:54.475Z,65102.69
2023-03-25T17:03:45.068Z,65102.69
2023-03-25T17:06:28.379Z,65102.69
2023-03-25T17:08:59.724Z,65102.69
2023-03-25T17:11:28.673Z,65102.69
2023-03-25T17:14:02.496Z,65102.69
2023-03-25T17:16:33.094Z,65102.69
2023-03-25T17:19:01.188Z,65102.69
2023-03-25T17:21:31.732Z,65102.69
2023-03-25T17:24:01.884Z,65102.69
2023-03-25T17:26:53.124Z,65102.69
2023-03-25T17:29:20.303Z,65102.69
2023-03-25T17:31:56.182Z,65102.69
2023-03-25T17:34:24.601Z,65102.69
2023-03-25T17:36:58.542Z,65102.69
2023-03-25T17:39:29.039Z,65102.69
2023-03-25T17:42:13.493Z,65102.69
2023-03-25T17:44:44.098Z,65102.69
2023-03-25T17:47:16.400Z,65102.69
2023-03-25T17:49:44.643Z,65102.69
2023-03-25T17:52:14.653Z,65102.69
2023-03-25T17:54:41.308Z,65102.69
2023-03-25T17:57:14.063Z,65102.69
2023-03-25T17:59:40.878Z,65102.69
2023-03-25T18:02:11.776Z,65102.69
2023-03-25T18:04:38.507Z,65102.69
2023-03-25T18:07:05.434Z,65102.69
2023-03-25T18:09:34.058Z,65102.69
2023-03-25T18:12:01.085Z,65102.69
2023-03-25T18:14:36.710Z,65102.69
2023-03-25T18:17:04.141Z,65102.69
2023-03-25T18:19:33.308Z,65102.69
2023-03-25T18:22:06.788Z,65102.69
2023-03-25T18:24:44.213Z,65102.69
2023-03-25T18:27:14.143Z,65102.69
2023-03-25T18:29:40.875Z,65102.69
2023-03-25T18:32:07.626Z,65102.69
2023-03-25T18:34:34.584Z,65102.69
2023-03-25T18:37:01.359Z,65102.69
2023-03-25T18:39:28.169Z,65102.69
2023-03-25T18:41:54.828Z,65102.69
2023-03-25T18:44:31.160Z,65102.69
2023-03-25T18:46:57.764Z,65102.69
2023-03-25T18:49:24.411Z,65102.69
2023-03-25T18:51:51.289Z,65102.69
2023-03-25T18:54:18.057Z,65102.69
2023-03-25T18:56:45.066Z,65102.69
2023-03-25T18:59:16.539Z,65102.69
2023-03-25T19:01:43.423Z,65102.69
2023-03-25T19:04:10.196Z,65102.69
2023-03-25T19:06:39.174Z,65102.69
2023-03-25T19:09:08.949Z,65102.69
2023-03-25T19:11:35.839Z,65102.69
2023-03-25T19:14:02.499Z,65102.69
2023-03-25T19:16:29.328Z,65102.69
2023-03-25T19:18:56.106Z,65102.69
2023-03-25T19:21:22.824Z,65102.69
2023-03-25T19:23:49.493Z,65102.69
2023-03-25T19:26:16.166Z,65102.69
2023-03-25T19:28:42.896Z,65102.69
2023-03-25T19:31:12.470Z,65102.69
2023-03-25T19:33:39.273Z,65102.69
2023-03-25T19:36:06.331Z,65102.69
2023-03-25T19:38:33.143Z,65102.69
2023-03-25T19:41:06.675Z,65102.69
2023-03-25T19:43:33.658Z,65102.69
2023-03-25T19:46:01.365Z,65102.69
2023-03-25T19:48:29.877Z,65102.69
2023-03-25T19:50:57.902Z,65102.69
2023-03-25T19:53:26.169Z,65102.69
2023-03-25T19:55:53.943Z,65102.69
2023-03-25T19:58:23.090Z,65102.69
2023-03-25T20:00:51.247Z,65102.69
2023-03-25T20:03:22.074Z,65102.69
2023-03-25T20:05:56.007Z,65102.69
2023-03-25T20:08:23.395Z,65102.69
2023-03-25T20:10:50.638Z,65102.69
2023-03-25T20:13:17.528Z,65102.69
2023-03-25T20:15:44.323Z,65102.69
2023-03-25T20:18:11.293Z,65102.69
2023-03-25T20:20:39.978Z,65102.69
2023-03-25T20:23:06.650Z,65102.69
2023-03-25T20:25:33.400Z,65102.69
2023-03-25T20:28:00.612Z,65102.69
2023-03-25T20:30:27.695Z,65102.69
2023-03-25T20:33:07.003Z,65102.69
2023-03-25T20:36:12.996Z,65102.69
2023-03-25T20:39:13.582Z,65102.69
2023-03-25T20:42:20.947Z,65102.69
2023-03-25T20:45:21.314Z,65102.69
2023-03-25T20:48:06.671Z,65102.69
2023-03-25T20:50:34.217Z,65102.69
2023-03-25T20:53:00.903Z,65102.69
2023-03-25T20:55:27.520Z,65102.69
2023-03-25T20:57:54.170Z,65102.69
2023-03-25T21:00:20.825Z,65102.69
2023-03-25T21:02:47.929Z,65102.69
2023-03-25T21:05:14.820Z,65102.69
2023-03-25T21:07:41.544Z,65102.69
2023-03-25T21:10:20.955Z,65102.69
2023-03-25T21:18:12.964Z,65102.69
2023-03-25T21:21:26.959Z,65102.69
2023-03-25T21:24:33.975Z,65102.69
2023-03-25T21:27:55.944Z,65102.69
2023-03-25T21:31:06.973Z,65102.69
2023-03-25T21:34:07.082Z,65102.69
2023-03-25T21:37:13.977Z,65102.69
2023-03-25T21:40:22.986Z,65102.69
2023-03-25T21:43:23.595Z,65102.69
2023-03-25T21:46:33.968Z,65102.69
2023-03-25T21:49:28.427Z,65102.69
2023-03-25T21:52:18.586Z,65102.69
2023-03-25T21:55:06.345Z,65102.69
2023-03-25T21:57:53.404Z,65102.69
2023-03-25T22:00:41.647Z,65102.69
2023-03-25T22:04:00.193Z,65102.69
2023-03-25T22:08:42.881Z,97996.38
2023-03-25T22:11:13.606Z,97993.97
2023-03-25T22:13:46.423Z,97989.31
2023-03-25T22:16:15.594Z,97986.69
2023-03-25T22:18:43.980Z,97988.50
2023-03-25T22:21:13.916Z,97977.41
2023-03-25T22:23:41.915Z,97973.72
2023-03-25T22:26:10.980Z,97973.56
2023-03-25T22:28:38.401Z,97972.16
2023-03-25T22:31:13.718Z,97964.44
2023-03-25T22:33:41.401Z,97965.06
2023-03-25T22:36:12.158Z,97961.81
2023-03-25T22:38:41.402Z,97964.66
2023-03-25T22:41:09.045Z,97957.78
2023-03-25T22:43:36.425Z,97963.78
2023-03-25T22:49:20.664Z,97950.72
2023-03-25T22:51:47.348Z,97954.34
2023-03-25T22:54:14.521Z,97948.47
2023-03-25T22:56:44.627Z,97953.34
2023-03-25T22:59:13.096Z,97947.69
2023-03-25T23:01:41.602Z,97945.47
2023-03-25T23:04:09.028Z,97942.84
2023-03-25T23:06:36.330Z,97947.47
2023-03-25T23:09:05.622Z,97942.00
2023-03-25T23:11:32.626Z,97939.38
2023-03-25T23:14:02.754Z,97938.97
2023-03-25T23:16:31.227Z,97939.59
2023-03-25T23:18:58.839Z,97941.22
2023-03-25T23:21:28.938Z,97942.44
2023-03-25T23:23:59.147Z,97943.22
2023-03-25T23:26:28.684Z,97935.34
2023-03-25T23:29:00.430Z,97936.19
2023-03-25T23:31:36.726Z,97933.94
2023-03-25T23:34:06.397Z,97932.13
2023-03-25T23:36:36.183Z,97931.88
2023-03-25T23:39:06.426Z,97929.38
2023-03-25T23:41:34.099Z,97929.50
2023-03-25T23:44:01.366Z,97926.38
2023-03-25T23:46:28.441Z,97927.91
2023-03-25T23:48:55.304Z,97929.47
2023-03-25T23:51:24.850Z,97939.31
2023-03-25T23:53:52.644Z,97937.63
2023-03-25T23:56:25.645Z,97944.66
2023-03-25T23:58:52.606Z,97938.50
